sensor_id;sensor_type;location;lat;lon;timestamp;temperature;humidity
22436;DHT22;11385;50.822;4.324;2023-03-20T00:00:49;7.50;99.90
22436;DHT22;11385;50.822;4.324;2023-03-20T00:03:17;7.50;99.90
22436;DHT22;11385;50.822;4.324;2023-03-20T00:05:44;7.40;99.90
22436;DHT22;11385;50.822;4.324;2023-03-20T00:08:12;7.40;99.90
22436;DHT22;11385;50.822;4.324;2023-03-20T00:10:41;7.40;99.90
22436;DHT22;11385;50.822;4.324;2023-03-20T00:13:20;7.40;99.90
22436;DHT22;11385;50.822;4.324;2023-03-20T00:15:44;7.40;99.90
22436;DHT22;11385;50.822;4.324;2023-03-20T00:18:19;7.40;99.90
22436;DHT22;11385;50.822;4.324;2023-03-20T00:20:49;7.40;99.90
22436;DHT22;11385;50.822;4.324;2023-03-20T00:23:17;7.40;99.90
22436;DHT22;11385;50.822;4.324;2023-03-20T00:25:46;7.40;99.90
22436;DHT22;11385;50.822;4.324;2023-03-20T00:30:53;7.30;99.90
22436;DHT22;11385;50.822;4.324;2023-03-20T00:33:20;7.30;99.90
22436;DHT22;11385;50.822;4.324;2023-03-20T00:35:48;7.40;99.90
22436;DHT22;11385;50.822;4.324;2023-03-20T00:38:15;7.40;99.90
22436;DHT22;11385;50.822;4.324;2023-03-20T00:40:44;7.50;99.90
22436;DHT22;11385;50.822;4.324;2023-03-20T00:43:12;7.80;99.90
22436;DHT22;11385;50.822;4.324;2023-03-20T00:45:41;7.80;99.90
22436;DHT22;11385;50.822;4.324;2023-03-20T00:48:14;7.80;99.90
22436;DHT22;11385;50.822;4.324;2023-03-20T00:50:42;7.90;99.90
22436;DHT22;11385;50.822;4.324;2023-03-20T00:53:13;7.80;99.90
22436;DHT22;11385;50.822;4.324;2023-03-20T00:55:41;7.90;99.90
22436;DHT22;11385;50.822;4.324;2023-03-20T00:58:08;7.90;99.90
22436;DHT22;11385;50.822;4.324;2023-03-20T01:00:43;7.90;99.90
22436;DHT22;11385;50.822;4.324;2023-03-20T01:03:16;7.90;99.90
22436;DHT22;11385;50.822;4.324;2023-03-20T01:05:44;7.90;99.90
22436;DHT22;11385;50.822;4.324;2023-03-20T01:08:14;7.90;99.90
22436;DHT22;11385;50.822;4.324;2023-03-20T01:10:42;7.90;99.90
22436;DHT22;11385;50.822;4.324;2023-03-20T01:13:22;8.00;99.90
22436;DHT22;11385;50.822;4.324;2023-03-20T01:15:56;7.90;99.90
22436;DHT22;11385;50.822;4.324;2023-03-20T01:18:25;7.90;99.90
22436;DHT22;11385;50.822;4.324;2023-03-20T01:20:52;7.90;99.90
22436;DHT22;11385;50.822;4.324;2023-03-20T01:23:20;8.00;99.90
22436;DHT22;11385;50.822;4.324;2023-03-20T01:25:52;8.10;99.90
22436;DHT22;11385;50.822;4.324;2023-03-20T01:28:22;8.10;99.90
22436;DHT22;11385;50.822;4.324;2023-03-20T01:30:51;8.10;99.90
22436;DHT22;11385;50.822;4.324;2023-03-20T01:33:22;8.00;99.90
22436;DHT22;11385;50.822;4.324;2023-03-20T01:35:51;8.10;99.90
22436;DHT22;11385;50.822;4.324;2023-03-20T01:38:22;8.20;99.90
22436;DHT22;11385;50.822;4.324;2023-03-20T01:40:56;8.10;99.90
22436;DHT22;11385;50.822;4.324;2023-03-20T01:43:27;8.10;99.90
22436;DHT22;11385;50.822;4.324;2023-03-20T01:46:02;8.10;99.90
22436;DHT22;11385;50.822;4.324;2023-03-20T01:49:08;8.20;99.90
22436;DHT22;11385;50.822;4.324;2023-03-20T01:51:22;8.10;99.90
22436;DHT22;11385;50.822;4.324;2023-03-20T01:53:55;8.10;99.90
22436;DHT22;11385;50.822;4.324;2023-03-20T01:56:21;8.20;99.90
22436;DHT22;11385;50.822;4.324;2023-03-20T01:58:52;8.20;99.90
22436;DHT22;11385;50.822;4.324;2023-03-20T02:01:19;8.10;99.90
22436;DHT22;11385;50.822;4.324;2023-03-20T02:03:47;8.10;99.90
22436;DHT22;11385;50.822;4.324;2023-03-20T02:06:16;8.20;99.90
22436;DHT22;11385;50.822;4.324;2023-03-20T02:08:47;8.20;99.90
22436;DHT22;11385;50.822;4.324;2023-03-20T02:11:19;8.00;99.90
22436;DHT22;11385;50.822;4.324;2023-03-20T02:13:51;8.00;99.90
22436;DHT22;11385;50.822;4.324;2023-03-20T02:16:19;8.00;99.90
22436;DHT22;11385;50.822;4.324;2023-03-20T02:18:48;8.00;99.90
22436;DHT22;11385;50.822;4.324;2023-03-20T02:27:01;7.80;99.90
22436;DHT22;11385;50.822;4.324;2023-03-20T02:35:28;7.90;99.90
22436;DHT22;11385;50.822;4.324;2023-03-20T02:37:44;7.90;99.90
22436;DHT22;11385;50.822;4.324;2023-03-20T02:40:16;7.90;99.90
22436;DHT22;11385;50.822;4.324;2023-03-20T02:43:02;7.90;99.90
22436;DHT22;11385;50.822;4.324;2023-03-20T02:45:42;8.00;99.90
22436;DHT22;11385;50.822;4.324;2023-03-20T02:51:02;7.90;99.90
22436;DHT22;11385;50.822;4.324;2023-03-20T02:53:48;7.70;99.90
22436;DHT22;11385;50.822;4.324;2023-03-20T02:56:22;7.80;99.90
22436;DHT22;11385;50.822;4.324;2023-03-20T02:59:59;7.80;99.90
22436;DHT22;11385;50.822;4.324;2023-03-20T03:01:40;7.70;99.90
22436;DHT22;11385;50.822;4.324;2023-03-20T03:04:13;7.80;99.90
22436;DHT22;11385;50.822;4.324;2023-03-20T03:06:42;7.80;99.90
22436;DHT22;11385;50.822;4.324;2023-03-20T03:09:15;7.80;99.90
22436;DHT22;11385;50.822;4.324;2023-03-20T03:11:48;7.80;99.90
22436;DHT22;11385;50.822;4.324;2023-03-20T03:14:51;7.80;99.90
22436;DHT22;11385;50.822;4.324;2023-03-20T03:17:04;7.80;99.90
22436;DHT22;11385;50.822;4.324;2023-03-20T03:19:34;7.60;99.90
22436;DHT22;11385;50.822;4.324;2023-03-20T03:22:02;7.50;99.90
22436;DHT22;11385;50.822;4.324;2023-03-20T03:24:32;7.50;99.90
22436;DHT22;11385;50.822;4.324;2023-03-20T03:27:04;7.60;99.90
22436;DHT22;11385;50.822;4.324;2023-03-20T03:29:33;7.40;99.90
22436;DHT22;11385;50.822;4.324;2023-03-20T03:32:02;7.50;99.90
22436;DHT22;11385;50.822;4.324;2023-03-20T03:34:31;7.60;99.90
22436;DHT22;11385;50.822;4.324;2023-03-20T03:37:13;7.60;99.90
22436;DHT22;11385;50.822;4.324;2023-03-20T03:42:27;7.70;99.90
22436;DHT22;11385;50.822;4.324;2023-03-20T03:44:59;7.80;99.90
22436;DHT22;11385;50.822;4.324;2023-03-20T03:47:31;7.80;99.90
22436;DHT22;11385;50.822;4.324;2023-03-20T03:50:02;8.00;99.90
22436;DHT22;11385;50.822;4.324;2023-03-20T03:52:30;8.00;99.90
22436;DHT22;11385;50.822;4.324;2023-03-20T03:55:09;8.00;99.90
22436;DHT22;11385;50.822;4.324;2023-03-20T03:57:40;7.80;99.90
22436;DHT22;11385;50.822;4.324;2023-03-20T04:00:09;7.80;99.90
22436;DHT22;11385;50.822;4.324;2023-03-20T04:02:37;7.80;99.90
22436;DHT22;11385;50.822;4.324;2023-03-20T04:05:06;7.70;99.90
22436;DHT22;11385;50.822;4.324;2023-03-20T04:07:35;7.60;99.90
22436;DHT22;11385;50.822;4.324;2023-03-20T04:10:03;7.70;99.90
22436;DHT22;11385;50.822;4.324;2023-03-20T04:12:42;7.60;99.90
22436;DHT22;11385;50.822;4.324;2023-03-20T04:15:10;7.70;99.90
22436;DHT22;11385;50.822;4.324;2023-03-20T04:17:38;7.70;99.90
22436;DHT22;11385;50.822;4.324;2023-03-20T04:20:06;7.60;99.90
22436;DHT22;11385;50.822;4.324;2023-03-20T04:22:33;7.70;99.90
22436;DHT22;11385;50.822;4.324;2023-03-20T04:25:01;7.70;99.90
22436;DHT22;11385;50.822;4.324;2023-03-20T04:27:28;7.70;99.90
22436;DHT22;11385;50.822;4.324;2023-03-20T04:29:56;7.80;99.90
22436;DHT22;11385;50.822;4.324;2023-03-20T04:32:23;7.70;99.90
22436;DHT22;11385;50.822;4.324;2023-03-20T04:34:49;7.60;99.90
22436;DHT22;11385;50.822;4.324;2023-03-20T04:37:17;7.60;99.90
22436;DHT22;11385;50.822;4.324;2023-03-20T04:39:44;7.60;99.90
22436;DHT22;11385;50.822;4.324;2023-03-20T04:42:11;7.60;99.90
22436;DHT22;11385;50.822;4.324;2023-03-20T04:44:38;7.40;99.90
22436;DHT22;11385;50.822;4.324;2023-03-20T04:47:04;7.40;99.90
22436;DHT22;11385;50.822;4.324;2023-03-20T04:49:32;7.40;99.90
22436;DHT22;11385;50.822;4.324;2023-03-20T04:51:59;7.50;99.90
22436;DHT22;11385;50.822;4.324;2023-03-20T04:54:26;7.50;99.90
22436;DHT22;11385;50.822;4.324;2023-03-20T04:56:52;7.60;99.90
22436;DHT22;11385;50.822;4.324;2023-03-20T04:59:19;7.70;99.90
22436;DHT22;11385;50.822;4.324;2023-03-20T05:01:46;7.70;99.90
22436;DHT22;11385;50.822;4.324;2023-03-20T05:04:12;7.60;99.90
22436;DHT22;11385;50.822;4.324;2023-03-20T05:06:39;7.80;99.90
22436;DHT22;11385;50.822;4.324;2023-03-20T05:09:06;7.80;99.90
22436;DHT22;11385;50.822;4.324;2023-03-20T05:11:33;7.80;99.90
22436;DHT22;11385;50.822;4.324;2023-03-20T05:13:59;7.70;99.90
22436;DHT22;11385;50.822;4.324;2023-03-20T05:16:26;7.60;99.90
22436;DHT22;11385;50.822;4.324;2023-03-20T05:18:52;7.60;99.90
22436;DHT22;11385;50.822;4.324;2023-03-20T05:21:20;7.70;99.90
22436;DHT22;11385;50.822;4.324;2023-03-20T05:23:47;7.70;99.90
22436;DHT22;11385;50.822;4.324;2023-03-20T05:26:14;7.60;99.90
22436;DHT22;11385;50.822;4.324;2023-03-20T05:28:41;7.70;99.90
22436;DHT22;11385;50.822;4.324;2023-03-20T05:31:08;7.70;99.90
22436;DHT22;11385;50.822;4.324;2023-03-20T05:33:35;7.80;99.90
22436;DHT22;11385;50.822;4.324;2023-03-20T05:36:02;7.50;99.90
22436;DHT22;11385;50.822;4.324;2023-03-20T05:38:30;7.60;99.90
22436;DHT22;11385;50.822;4.324;2023-03-20T05:40:58;7.80;99.90
22436;DHT22;11385;50.822;4.324;2023-03-20T05:43:25;7.80;99.90
22436;DHT22;11385;50.822;4.324;2023-03-20T05:46:00;7.50;99.90
22436;DHT22;11385;50.822;4.324;2023-03-20T05:48:27;7.70;99.90
22436;DHT22;11385;50.822;4.324;2023-03-20T05:50:53;7.70;99.90
22436;DHT22;11385;50.822;4.324;2023-03-20T05:53:20;7.70;99.90
22436;DHT22;11385;50.822;4.324;2023-03-20T05:55:47;7.60;99.90
22436;DHT22;11385;50.822;4.324;2023-03-20T05:58:14;7.70;99.90
22436;DHT22;11385;50.822;4.324;2023-03-20T06:00:42;7.80;99.90
22436;DHT22;11385;50.822;4.324;2023-03-20T06:03:09;7.80;99.90
22436;DHT22;11385;50.822;4.324;2023-03-20T06:05:37;7.80;99.90
22436;DHT22;11385;50.822;4.324;2023-03-20T06:08:04;7.70;99.90
22436;DHT22;11385;50.822;4.324;2023-03-20T06:10:31;7.70;99.90
22436;DHT22;11385;50.822;4.324;2023-03-20T06:12:58;7.80;99.90
22436;DHT22;11385;50.822;4.324;2023-03-20T06:15:27;7.60;99.90
22436;DHT22;11385;50.822;4.324;2023-03-20T06:17:55;7.70;99.90
22436;DHT22;11385;50.822;4.324;2023-03-20T06:20:22;7.70;99.90
22436;DHT22;11385;50.822;4.324;2023-03-20T06:22:49;7.70;99.90
22436;DHT22;11385;50.822;4.324;2023-03-20T06:25:17;7.60;99.90
22436;DHT22;11385;50.822;4.324;2023-03-20T06:27:45;7.50;99.90
22436;DHT22;11385;50.822;4.324;2023-03-20T06:30:13;7.50;99.90
22436;DHT22;11385;50.822;4.324;2023-03-20T06:32:40;7.60;99.90
22436;DHT22;11385;50.822;4.324;2023-03-20T06:35:07;7.70;99.90
22436;DHT22;11385;50.822;4.324;2023-03-20T06:37:35;7.70;99.90
22436;DHT22;11385;50.822;4.324;2023-03-20T06:40:02;7.70;99.90
22436;DHT22;11385;50.822;4.324;2023-03-20T06:42:29;7.70;99.90
22436;DHT22;11385;50.822;4.324;2023-03-20T06:44:56;7.50;99.90
22436;DHT22;11385;50.822;4.324;2023-03-20T06:47:23;7.50;99.90
22436;DHT22;11385;50.822;4.324;2023-03-20T06:49:49;7.70;99.90
22436;DHT22;11385;50.822;4.324;2023-03-20T06:52:18;7.80;99.90
22436;DHT22;11385;50.822;4.324;2023-03-20T06:54:46;7.90;99.90
22436;DHT22;11385;50.822;4.324;2023-03-20T06:57:13;7.80;99.90
22436;DHT22;11385;50.822;4.324;2023-03-20T06:59:43;7.70;99.90
22436;DHT22;11385;50.822;4.324;2023-03-20T07:02:10;7.80;99.90
22436;DHT22;11385;50.822;4.324;2023-03-20T07:04:36;7.80;99.90
22436;DHT22;11385;50.822;4.324;2023-03-20T07:07:03;7.70;99.90
22436;DHT22;11385;50.822;4.324;2023-03-20T07:09:30;7.70;99.90
22436;DHT22;11385;50.822;4.324;2023-03-20T07:11:58;7.70;99.90
22436;DHT22;11385;50.822;4.324;2023-03-20T07:14:25;7.90;99.90
22436;DHT22;11385;50.822;4.324;2023-03-20T07:16:51;8.00;99.90
22436;DHT22;11385;50.822;4.324;2023-03-20T07:19:19;7.90;99.90
22436;DHT22;11385;50.822;4.324;2023-03-20T07:21:46;8.10;99.90
22436;DHT22;11385;50.822;4.324;2023-03-20T07:24:13;8.20;99.90
22436;DHT22;11385;50.822;4.324;2023-03-20T07:26:41;8.10;99.90
22436;DHT22;11385;50.822;4.324;2023-03-20T07:29:08;8.20;99.90
22436;DHT22;11385;50.822;4.324;2023-03-20T07:31:34;8.40;99.90
22436;DHT22;11385;50.822;4.324;2023-03-20T07:34:01;8.40;99.90
22436;DHT22;11385;50.822;4.324;2023-03-20T07:36:27;8.60;99.90
22436;DHT22;11385;50.822;4.324;2023-03-20T07:38:54;8.70;99.90
22436;DHT22;11385;50.822;4.324;2023-03-20T07:41:21;8.60;99.90
22436;DHT22;11385;50.822;4.324;2023-03-20T07:43:47;8.40;99.90
22436;DHT22;11385;50.822;4.324;2023-03-20T07:46:14;8.50;99.90
22436;DHT22;11385;50.822;4.324;2023-03-20T07:48:41;8.40;99.90
22436;DHT22;11385;50.822;4.324;2023-03-20T07:51:07;8.40;99.90
22436;DHT22;11385;50.822;4.324;2023-03-20T07:53:34;8.50;99.90
22436;DHT22;11385;50.822;4.324;2023-03-20T07:56:01;8.50;99.90
22436;DHT22;11385;50.822;4.324;2023-03-20T07:58:28;8.70;99.90
22436;DHT22;11385;50.822;4.324;2023-03-20T08:00:57;8.80;99.90
22436;DHT22;11385;50.822;4.324;2023-03-20T08:03:23;8.70;99.90
22436;DHT22;11385;50.822;4.324;2023-03-20T08:05:51;8.60;99.90
22436;DHT22;11385;50.822;4.324;2023-03-20T08:08:17;8.70;99.90
22436;DHT22;11385;50.822;4.324;2023-03-20T08:10:44;8.90;99.90
22436;DHT22;11385;50.822;4.324;2023-03-20T08:13:11;8.90;99.90
22436;DHT22;11385;50.822;4.324;2023-03-20T08:15:38;8.90;99.90
22436;DHT22;11385;50.822;4.324;2023-03-20T08:18:05;9.10;99.90
22436;DHT22;11385;50.822;4.324;2023-03-20T08:20:32;9.20;99.90
22436;DHT22;11385;50.822;4.324;2023-03-20T08:22:58;9.20;99.90
22436;DHT22;11385;50.822;4.324;2023-03-20T08:25:25;9.10;99.90
22436;DHT22;11385;50.822;4.324;2023-03-20T08:27:52;9.10;99.90
22436;DHT22;11385;50.822;4.324;2023-03-20T08:30:19;9.10;99.90
22436;DHT22;11385;50.822;4.324;2023-03-20T08:32:46;9.20;99.90
22436;DHT22;11385;50.822;4.324;2023-03-20T08:35:13;9.30;99.90
22436;DHT22;11385;50.822;4.324;2023-03-20T08:37:39;9.50;99.90
22436;DHT22;11385;50.822;4.324;2023-03-20T08:40:07;9.60;99.90
22436;DHT22;11385;50.822;4.324;2023-03-20T08:42:33;9.70;99.90
22436;DHT22;11385;50.822;4.324;2023-03-20T08:45:00;9.90;99.90
22436;DHT22;11385;50.822;4.324;2023-03-20T08:47:27;10.00;99.90
22436;DHT22;11385;50.822;4.324;2023-03-20T08:49:54;10.00;99.90
22436;DHT22;11385;50.822;4.324;2023-03-20T08:52:21;10.00;99.90
22436;DHT22;11385;50.822;4.324;2023-03-20T08:54:47;10.00;99.90
22436;DHT22;11385;50.822;4.324;2023-03-20T08:57:15;9.80;99.90
22436;DHT22;11385;50.822;4.324;2023-03-20T08:59:42;9.80;99.90
22436;DHT22;11385;50.822;4.324;2023-03-20T09:02:10;9.60;99.90
22436;DHT22;11385;50.822;4.324;2023-03-20T09:04:37;9.60;99.90
22436;DHT22;11385;50.822;4.324;2023-03-20T09:07:03;9.40;99.90
22436;DHT22;11385;50.822;4.324;2023-03-20T09:09:30;9.60;99.90
22436;DHT22;11385;50.822;4.324;2023-03-20T09:11:57;9.50;99.90
22436;DHT22;11385;50.822;4.324;2023-03-20T09:14:25;9.50;99.90
22436;DHT22;11385;50.822;4.324;2023-03-20T09:16:52;9.30;99.90
22436;DHT22;11385;50.822;4.324;2023-03-20T09:19:19;9.50;99.90
22436;DHT22;11385;50.822;4.324;2023-03-20T09:21:46;9.60;99.90
22436;DHT22;11385;50.822;4.324;2023-03-20T09:24:14;9.60;99.90
22436;DHT22;11385;50.822;4.324;2023-03-20T09:26:42;9.80;99.90
22436;DHT22;11385;50.822;4.324;2023-03-20T09:29:09;9.80;99.90
22436;DHT22;11385;50.822;4.324;2023-03-20T09:31:36;10.00;99.90
22436;DHT22;11385;50.822;4.324;2023-03-20T09:34:03;9.80;99.90
22436;DHT22;11385;50.822;4.324;2023-03-20T09:36:29;10.00;99.90
22436;DHT22;11385;50.822;4.324;2023-03-20T09:38:56;10.10;99.90
22436;DHT22;11385;50.822;4.324;2023-03-20T09:41:24;10.00;99.90
22436;DHT22;11385;50.822;4.324;2023-03-20T09:44:04;10.00;99.90
22436;DHT22;11385;50.822;4.324;2023-03-20T09:46:51;10.10;99.90
22436;DHT22;11385;50.822;4.324;2023-03-20T09:52:09;10.60;99.90
22436;DHT22;11385;50.822;4.324;2023-03-20T09:54:35;10.80;99.90
22436;DHT22;11385;50.822;4.324;2023-03-20T09:57:04;11.20;99.90
22436;DHT22;11385;50.822;4.324;2023-03-20T09:59:33;11.10;99.90
22436;DHT22;11385;50.822;4.324;2023-03-20T10:02:21;10.80;99.90
22436;DHT22;11385;50.822;4.324;2023-03-20T10:04:53;10.80;99.90
22436;DHT22;11385;50.822;4.324;2023-03-20T10:07:20;10.80;99.90
22436;DHT22;11385;50.822;4.324;2023-03-20T10:09:48;11.10;99.90
22436;DHT22;11385;50.822;4.324;2023-03-20T10:12:29;11.10;99.90
22436;DHT22;11385;50.822;4.324;2023-03-20T10:15:15;11.40;99.90
22436;DHT22;11385;50.822;4.324;2023-03-20T10:17:55;11.40;99.90
22436;DHT22;11385;50.822;4.324;2023-03-20T10:20:34;11.30;99.90
22436;DHT22;11385;50.822;4.324;2023-03-20T10:23:05;11.70;99.90
22436;DHT22;11385;50.822;4.324;2023-03-20T10:25:36;11.60;99.90
22436;DHT22;11385;50.822;4.324;2023-03-20T10:28:23;11.70;99.90
22436;DHT22;11385;50.822;4.324;2023-03-20T10:33:47;11.90;99.90
22436;DHT22;11385;50.822;4.324;2023-03-20T10:36:38;11.70;99.90
22436;DHT22;11385;50.822;4.324;2023-03-20T10:39:17;11.60;99.90
22436;DHT22;11385;50.822;4.324;2023-03-20T10:41:48;11.70;99.90
22436;DHT22;11385;50.822;4.324;2023-03-20T10:44:19;11.90;99.90
22436;DHT22;11385;50.822;4.324;2023-03-20T10:46:49;11.90;99.90
22436;DHT22;11385;50.822;4.324;2023-03-20T10:49:24;12.00;99.90
22436;DHT22;11385;50.822;4.324;2023-03-20T10:51:54;12.40;99.90
22436;DHT22;11385;50.822;4.324;2023-03-20T10:54:25;12.40;99.90
22436;DHT22;11385;50.822;4.324;2023-03-20T10:56:54;12.70;99.90
22436;DHT22;11385;50.822;4.324;2023-03-20T10:59:36;12.40;99.90
22436;DHT22;11385;50.822;4.324;2023-03-20T11:02:13;11.90;99.90
22436;DHT22;11385;50.822;4.324;2023-03-20T11:04:40;11.70;99.90
22436;DHT22;11385;50.822;4.324;2023-03-20T11:07:22;11.70;99.90
22436;DHT22;11385;50.822;4.324;2023-03-20T11:12:32;11.40;99.90
22436;DHT22;11385;50.822;4.324;2023-03-20T11:15:04;11.50;99.90
22436;DHT22;11385;50.822;4.324;2023-03-20T11:17:33;11.90;99.90
22436;DHT22;11385;50.822;4.324;2023-03-20T11:20:03;12.10;99.90
22436;DHT22;11385;50.822;4.324;2023-03-20T11:22:30;12.10;99.90
22436;DHT22;11385;50.822;4.324;2023-03-20T11:25:00;12.20;99.90
22436;DHT22;11385;50.822;4.324;2023-03-20T11:27:30;11.90;99.90
22436;DHT22;11385;50.822;4.324;2023-03-20T11:29:59;12.00;99.90
22436;DHT22;11385;50.822;4.324;2023-03-20T11:32:34;11.80;99.90
22436;DHT22;11385;50.822;4.324;2023-03-20T11:35:10;11.70;99.90
22436;DHT22;11385;50.822;4.324;2023-03-20T11:37:43;11.90;99.90
22436;DHT22;11385;50.822;4.324;2023-03-20T11:40:15;11.70;99.90
22436;DHT22;11385;50.822;4.324;2023-03-20T11:42:52;12.00;99.90
22436;DHT22;11385;50.822;4.324;2023-03-20T11:45:19;12.10;99.90
22436;DHT22;11385;50.822;4.324;2023-03-20T11:47:52;12.30;99.90
22436;DHT22;11385;50.822;4.324;2023-03-20T11:50:31;12.10;99.90
22436;DHT22;11385;50.822;4.324;2023-03-20T11:53:01;12.10;99.90
22436;DHT22;11385;50.822;4.324;2023-03-20T11:55:32;12.40;99.90
22436;DHT22;11385;50.822;4.324;2023-03-20T11:58:02;12.50;99.90
22436;DHT22;11385;50.822;4.324;2023-03-20T12:00:39;12.50;99.90
22436;DHT22;11385;50.822;4.324;2023-03-20T12:03:33;12.60;99.90
22436;DHT22;11385;50.822;4.324;2023-03-20T12:06:05;12.60;99.90
22436;DHT22;11385;50.822;4.324;2023-03-20T12:08:34;12.90;99.90
22436;DHT22;11385;50.822;4.324;2023-03-20T12:11:07;13.10;99.90
22436;DHT22;11385;50.822;4.324;2023-03-20T12:13:38;13.40;99.90
22436;DHT22;11385;50.822;4.324;2023-03-20T12:16:11;13.10;99.90
22436;DHT22;11385;50.822;4.324;2023-03-20T12:18:42;13.10;99.90
22436;DHT22;11385;50.822;4.324;2023-03-20T12:21:25;13.10;99.90
22436;DHT22;11385;50.822;4.324;2023-03-20T12:26:31;13.70;99.90
22436;DHT22;11385;50.822;4.324;2023-03-20T12:29:10;13.60;99.90
22436;DHT22;11385;50.822;4.324;2023-03-20T12:31:47;13.70;99.90
22436;DHT22;11385;50.822;4.324;2023-03-20T12:34:21;13.70;99.90
22436;DHT22;11385;50.822;4.324;2023-03-20T12:36:50;13.90;99.90
22436;DHT22;11385;50.822;4.324;2023-03-20T12:39:20;13.90;99.90
22436;DHT22;11385;50.822;4.324;2023-03-20T12:41:58;14.00;99.90
22436;DHT22;11385;50.822;4.324;2023-03-20T12:44:32;13.90;99.90
22436;DHT22;11385;50.822;4.324;2023-03-20T12:47:14;13.80;99.90
22436;DHT22;11385;50.822;4.324;2023-03-20T12:50:03;14.00;99.90
22436;DHT22;11385;50.822;4.324;2023-03-20T12:53:10;13.50;99.90
22436;DHT22;11385;50.822;4.324;2023-03-20T12:55:39;13.00;99.90
22436;DHT22;11385;50.822;4.324;2023-03-20T12:58:26;13.10;99.90
22436;DHT22;11385;50.822;4.324;2023-03-20T13:01:01;12.90;99.90
22436;DHT22;11385;50.822;4.324;2023-03-20T13:12:18;13.10;99.90
22436;DHT22;11385;50.822;4.324;2023-03-20T13:14:56;13.10;99.90
22436;DHT22;11385;50.822;4.324;2023-03-20T13:17:32;12.90;99.90
22436;DHT22;11385;50.822;4.324;2023-03-20T13:26:02;12.80;99.90
22436;DHT22;11385;50.822;4.324;2023-03-20T13:28:56;12.70;99.90
22436;DHT22;11385;50.822;4.324;2023-03-20T13:31:49;12.90;99.90
22436;DHT22;11385;50.822;4.324;2023-03-20T13:34:26;12.90;99.90
22436;DHT22;11385;50.822;4.324;2023-03-20T13:37:37;12.90;99.90
22436;DHT22;11385;50.822;4.324;2023-03-20T13:39:57;13.10;99.90
22436;DHT22;11385;50.822;4.324;2023-03-20T13:42:26;13.00;99.90
22436;DHT22;11385;50.822;4.324;2023-03-20T13:44:56;12.90;99.90
22436;DHT22;11385;50.822;4.324;2023-03-20T13:47:25;12.80;99.90
22436;DHT22;11385;50.822;4.324;2023-03-20T13:50:16;12.80;99.90
22436;DHT22;11385;50.822;4.324;2023-03-20T13:52:36;13.00;99.90
22436;DHT22;11385;50.822;4.324;2023-03-20T13:55:36;12.80;99.90
22436;DHT22;11385;50.822;4.324;2023-03-20T13:58:12;12.60;99.90
22436;DHT22;11385;50.822;4.324;2023-03-20T14:00:46;12.30;99.90
22436;DHT22;11385;50.822;4.324;2023-03-20T14:03:23;12.20;99.90
22436;DHT22;11385;50.822;4.324;2023-03-20T14:05:48;12.20;99.90
22436;DHT22;11385;50.822;4.324;2023-03-20T14:08:31;12.30;99.90
22436;DHT22;11385;50.822;4.324;2023-03-20T14:11:27;12.30;99.90
22436;DHT22;11385;50.822;4.324;2023-03-20T14:14:30;12.40;99.90
22436;DHT22;11385;50.822;4.324;2023-03-20T14:17:08;12.70;99.90
22436;DHT22;11385;50.822;4.324;2023-03-20T14:19:36;13.00;99.90
22436;DHT22;11385;50.822;4.324;2023-03-20T14:22:04;13.00;99.90
22436;DHT22;11385;50.822;4.324;2023-03-20T14:24:34;13.00;99.90
22436;DHT22;11385;50.822;4.324;2023-03-20T14:27:03;13.20;99.90
22436;DHT22;11385;50.822;4.324;2023-03-20T14:29:35;13.20;99.90
22436;DHT22;11385;50.822;4.324;2023-03-20T14:34:51;13.10;99.90
22436;DHT22;11385;50.822;4.324;2023-03-20T14:37:32;13.10;99.90
22436;DHT22;11385;50.822;4.324;2023-03-20T14:42:52;12.70;99.90
22436;DHT22;11385;50.822;4.324;2023-03-20T14:45:35;12.80;99.90
22436;DHT22;11385;50.822;4.324;2023-03-20T14:48:08;12.60;99.90
22436;DHT22;11385;50.822;4.324;2023-03-20T14:53:39;12.80;99.90
22436;DHT22;11385;50.822;4.324;2023-03-20T14:56:09;12.60;99.90
22436;DHT22;11385;50.822;4.324;2023-03-20T14:58:45;12.40;99.90
22436;DHT22;11385;50.822;4.324;2023-03-20T15:01:39;12.50;99.90
22436;DHT22;11385;50.822;4.324;2023-03-20T15:04:04;12.60;99.90
22436;DHT22;11385;50.822;4.324;2023-03-20T15:06:33;12.70;99.90
22436;DHT22;11385;50.822;4.324;2023-03-20T15:09:04;12.70;99.90
22436;DHT22;11385;50.822;4.324;2023-03-20T15:11:32;12.90;99.90
22436;DHT22;11385;50.822;4.324;2023-03-20T15:14:00;12.60;99.90
22436;DHT22;11385;50.822;4.324;2023-03-20T15:16:30;12.40;99.90
22436;DHT22;11385;50.822;4.324;2023-03-20T15:18:58;12.30;99.90
22436;DHT22;11385;50.822;4.324;2023-03-20T15:21:33;12.10;99.90
22436;DHT22;11385;50.822;4.324;2023-03-20T15:24:01;12.20;99.90
22436;DHT22;11385;50.822;4.324;2023-03-20T15:26:29;12.40;99.90
22436;DHT22;11385;50.822;4.324;2023-03-20T15:29:07;12.30;99.90
22436;DHT22;11385;50.822;4.324;2023-03-20T15:31:39;12.30;99.90
22436;DHT22;11385;50.822;4.324;2023-03-20T15:34:09;12.30;99.90
22436;DHT22;11385;50.822;4.324;2023-03-20T15:36:38;12.40;99.90
22436;DHT22;11385;50.822;4.324;2023-03-20T15:39:13;12.30;99.90
22436;DHT22;11385;50.822;4.324;2023-03-20T15:41:45;12.40;99.90
22436;DHT22;11385;50.822;4.324;2023-03-20T15:44:23;12.30;99.90
22436;DHT22;11385;50.822;4.324;2023-03-20T15:47:17;12.30;99.90
22436;DHT22;11385;50.822;4.324;2023-03-20T15:49:51;12.50;99.90
22436;DHT22;11385;50.822;4.324;2023-03-20T15:52:28;12.60;99.90
22436;DHT22;11385;50.822;4.324;2023-03-20T15:54:56;12.70;99.90
22436;DHT22;11385;50.822;4.324;2023-03-20T15:57:29;12.70;99.90
22436;DHT22;11385;50.822;4.324;2023-03-20T15:59:55;12.80;99.90
22436;DHT22;11385;50.822;4.324;2023-03-20T16:02:23;12.70;99.90
22436;DHT22;11385;50.822;4.324;2023-03-20T16:04:51;12.80;99.90
22436;DHT22;11385;50.822;4.324;2023-03-20T16:07:25;12.80;99.90
22436;DHT22;11385;50.822;4.324;2023-03-20T16:09:51;12.60;99.90
22436;DHT22;11385;50.822;4.324;2023-03-20T16:12:18;12.50;99.90
22436;DHT22;11385;50.822;4.324;2023-03-20T16:14:47;12.50;99.90
22436;DHT22;11385;50.822;4.324;2023-03-20T16:17:16;12.60;99.90
22436;DHT22;11385;50.822;4.324;2023-03-20T16:19:44;12.60;99.90
22436;DHT22;11385;50.822;4.324;2023-03-20T16:22:18;12.60;99.90
22436;DHT22;11385;50.822;4.324;2023-03-20T16:24:47;12.60;99.90
22436;DHT22;11385;50.822;4.324;2023-03-20T16:27:27;12.40;99.90
22436;DHT22;11385;50.822;4.324;2023-03-20T16:29:54;12.50;99.90
22436;DHT22;11385;50.822;4.324;2023-03-20T16:32:28;12.40;99.90
22436;DHT22;11385;50.822;4.324;2023-03-20T16:34:55;12.30;99.90
22436;DHT22;11385;50.822;4.324;2023-03-20T16:37:29;12.50;99.90
22436;DHT22;11385;50.822;4.324;2023-03-20T16:42:36;12.50;99.90
22436;DHT22;11385;50.822;4.324;2023-03-20T16:45:05;12.40;99.90
22436;DHT22;11385;50.822;4.324;2023-03-20T16:47:35;12.40;99.90
22436;DHT22;11385;50.822;4.324;2023-03-20T16:50:14;12.50;99.90
22436;DHT22;11385;50.822;4.324;2023-03-20T16:52:48;12.40;99.90
22436;DHT22;11385;50.822;4.324;2023-03-20T16:55:21;12.40;99.90
22436;DHT22;11385;50.822;4.324;2023-03-20T16:57:51;12.20;99.90
22436;DHT22;11385;50.822;4.324;2023-03-20T17:00:23;12.30;99.90